Augsburg, Illinois
Current Conditions -  °F | °C
As of 7:55 AM on Thursday 23 Oct 2014 (Local Time) from KSLO Reporting Station
Haze Haze  
Wind Chill: 43°   Ceiling: Unl
Heat Index: 43°   Visibility: 5mi
Dew Point: 41°   Wind: 0mph
Humidity: 94%   Direction: NA
Pressure: 30.23"   Gusts: NA
Location:  38.8463°N, 89.0894°W
Report Text: KSLO 231255Z AUTO 00000KT 5SM BR CLR 06/05 A3023 RMK AO2 T00590050
Loading
Personal Weather Stations






























Interactive Weather Map
Tropical Storm Tracking
New forecast layout! Learn more

10-Day Weather Forecast

Advertisements
Track Severe Weather on mobile